Industry, Kansas
Current Conditions -  °F | °C
As of 12:58 AM on Thursday 23 Oct 2014 (Local Time) from KFRI Reporting Station
Overcast Overcast  
Wind Chill: 17°   Ceiling: 6000
Heat Index: 17°   Visibility: 10mi
Dew Point: 17°   Wind: 2mph
Humidity: 100%   Direction: 70°ENE
Pressure: 30.07"   Gusts: NA
Location:  39.0421°N, 97.1702°W
Report Text: KFRI 230558Z AUTO 07002KT 10SM OVC060 17/17 A3007 RMK AO2 RAE0539DZB0503E0505B0539E0543 SLP174 P0001 60003 T01680168 10225 20168 402670136 53001
Loading
Personal Weather Stations






























Interactive Weather Map
Tropical Storm Tracking
New forecast layout! Learn more

10-Day Weather Forecast

Advertisements
Track Severe Weather on mobile